Hendren, Wisconsin
Current Conditions -  °F | °C
As of 7:15 AM on Thursday 27 Nov 2014 (Local Time) from KBCK Reporting Station
Clear Clear  
Wind Chill: -7°   Ceiling: Unl
Heat Index:   Visibility: 10mi
Dew Point:   Wind: 8mph
Humidity: 78%   Direction: 320°NW
Pressure: 30.41"   Gusts: NA
Location:  44.6989°N, 90.8181°W
Report Text: KBCK 271315Z AUTO 32007KT 10SM CLR M14/M18 A3041 RMK AO2 T11451176
Loading
Personal Weather Stations






























Interactive Weather Map New forecast layout! Learn more

10-Day Weather Forecast

Advertisements
Track Severe Weather on mobile